Time;durP1;ratioP1;P1;durP2;ratioP2;P2;SDS_P1;SDS_P2;PMS_P1;PMS_P2;Temp;Humidity;BMP_temperature;BMP_pressure;BME280_temperature;BME280_humidity;BME280_pressure;Samples;Min_cycle;Max_cycle;Signal;HPM_P1;HPM_P2
2023/10/20 00:00:44;;;;;;;0.95;0.90;;;8.50;99.90;;;;;;5095297;28;20480;-74
2023/10/20 00:03:10;;;;;;;0.90;0.90;;;8.50;99.90;;;;;;5095636;28;20036;-71
2023/10/20 00:05:36;;;;;;;2.05;1.95;;;8.50;99.90;;;;;;5095444;28;20116;-71
2023/10/20 00:08:02;;;;;;;0.93;0.93;;;8.40;99.90;;;;;;5095282;28;20087;-72
2023/10/20 00:10:31;;;;;;;1.53;1.43;;;8.50;99.90;;;;;;5095367;28;20040;-72
2023/10/20 00:12:59;;;;;;;0.80;0.80;;;8.50;99.90;;;;;;5095157;28;20072;-71
2023/10/20 00:15:25;;;;;;;0.80;0.80;;;8.40;99.90;;;;;;5095041;28;20387;-71
2023/10/20 00:17:51;;;;;;;1.05;1.00;;;8.40;99.90;;;;;;5095339;28;20042;-69
2023/10/20 00:20:16;;;;;;;1.00;1.00;;;9.20;99.90;;;;;;5095525;28;20044;-71
2023/10/20 00:22:42;;;;;;;0.80;0.80;;;8.40;99.90;;;;;;5095292;28;20119;-70
2023/10/20 00:25:11;;;;;;;0.90;0.90;;;8.50;99.90;;;;;;5095167;28;20040;-70
2023/10/20 00:27:37;;;;;;;0.90;0.90;;;8.40;99.90;;;;;;5095072;28;20063;-69
2023/10/20 00:30:02;;;;;;;2.15;1.45;;;8.40;99.90;;;;;;5095504;28;20050;-70
2023/10/20 00:32:30;;;;;;;1.55;1.45;;;8.40;99.90;;;;;;5094968;28;20040;-72
2023/10/20 00:34:57;;;;;;;0.93;0.93;;;8.70;99.90;;;;;;5094917;28;20044;-71
2023/10/20 00:37:23;;;;;;;0.80;0.80;;;8.80;99.90;;;;;;5094404;28;20083;-70
2023/10/20 00:39:49;;;;;;;0.90;0.90;;;8.60;99.90;;;;;;5094886;28;20134;-74
2023/10/20 00:42:14;;;;;;;0.90;0.90;;;9.00;99.90;;;;;;5094783;28;20154;-72
2023/10/20 00:44:40;;;;;;;1.77;1.52;;;8.40;99.90;;;;;;5095107;28;20410;-69
2023/10/20 00:47:06;;;;;;;1.65;1.55;;;8.40;99.90;;;;;;5094681;28;20036;-71
2023/10/20 00:49:32;;;;;;;0.88;0.88;;;8.40;99.90;;;;;;5093723;28;20036;-70
2023/10/20 00:51:59;;;;;;;2.55;2.35;;;8.40;99.90;;;;;;5094705;28;20040;-69
2023/10/20 00:54:24;;;;;;;;;;;8.40;99.90;;;;;;5094943;28;20086;-70
2023/10/20 00:56:51;;;;;;;3.38;2.35;;;8.30;99.90;;;;;;5094397;28;19916;-72
2023/10/20 00:59:17;;;;;;;1.00;1.00;;;8.30;99.90;;;;;;5094429;28;20032;-69
2023/10/20 01:01:42;;;;;;;1.52;1.48;;;8.30;99.90;;;;;;5094336;28;20088;-68
2023/10/20 01:04:08;;;;;;;2.55;2.40;;;9.10;99.90;;;;;;5094472;28;20075;-72
2023/10/20 01:06:36;;;;;;;3.35;3.00;;;8.30;99.90;;;;;;5093414;28;20039;-71
2023/10/20 01:09:02;;;;;;;1.35;1.25;;;8.60;99.90;;;;;;5093962;28;20056;-72
2023/10/20 01:11:27;;;;;;;1.45;1.35;;;8.30;99.90;;;;;;5094141;28;20488;-72
2023/10/20 01:13:53;;;;;;;0.90;0.90;;;8.30;99.90;;;;;;5094207;28;20182;-70
2023/10/20 01:16:19;;;;;;;1.20;1.10;;;8.20;99.90;;;;;;5094130;28;20436;-72
2023/10/20 01:18:44;;;;;;;1.38;1.23;;;8.30;99.90;;;;;;5094186;28;20048;-73
2023/10/20 01:21:10;;;;;;;2.53;1.33;;;8.70;99.90;;;;;;5094045;28;20075;-70
2023/10/20 01:23:37;;;;;;;0.90;0.90;;;8.30;99.90;;;;;;5094119;28;20118;-71
2023/10/20 01:26:03;;;;;;;0.95;0.95;;;8.20;99.90;;;;;;5094023;28;20050;-73
2023/10/20 01:28:29;;;;;;;1.00;1.00;;;8.20;99.90;;;;;;5093197;28;20143;-70
2023/10/20 01:30:57;;;;;;;1.20;1.10;;;8.20;99.90;;;;;;5093740;28;20123;-70
2023/10/20 01:33:22;;;;;;;1.13;1.08;;;9.00;99.90;;;;;;5093738;28;20039;-72
2023/10/20 01:35:48;;;;;;;1.00;1.00;;;8.20;99.90;;;;;;5093944;28;20044;-69
2023/10/20 01:38:13;;;;;;;1.25;1.15;;;8.20;99.90;;;;;;5093821;28;20047;-70
2023/10/20 01:40:39;;;;;;;1.90;1.80;;;8.20;99.90;;;;;;5093867;28;20051;-70
2023/10/20 01:43:05;;;;;;;1.20;1.10;;;8.20;99.90;;;;;;5092749;28;20051;-69
2023/10/20 01:45:31;;;;;;;0.90;0.90;;;8.70;99.90;;;;;;5093813;28;20044;-72
2023/10/20 01:47:56;;;;;;;1.02;1.02;;;8.20;99.90;;;;;;5093721;28;20379;-71
2023/10/20 01:50:24;;;;;;;1.20;1.10;;;8.20;99.90;;;;;;5093689;28;20043;-74
2023/10/20 01:52:50;;;;;;;1.00;1.00;;;8.20;99.90;;;;;;5093564;28;20044;-69
2023/10/20 01:55:15;;;;;;;1.10;1.00;;;8.20;99.90;;;;;;5093637;28;20067;-72
2023/10/20 01:57:41;;;;;;;1.00;1.00;;;8.20;99.90;;;;;;5093889;28;20051;-72
2023/10/20 02:00:13;;;;;;;1.30;0.98;;;8.20;99.90;;;;;;5093645;28;20554;-70
2023/10/20 02:02:39;;;;;;;1.20;1.10;;;8.20;99.90;;;;;;5093885;28;20082;-71
2023/10/20 02:05:08;;;;;;;0.90;0.90;;;8.20;99.90;;;;;;5093581;28;20055;-69
2023/10/20 02:07:34;;;;;;;0.90;0.90;;;8.20;99.90;;;;;;5093520;28;20480;-74
2023/10/20 02:09:59;;;;;;;1.38;1.27;;;8.20;99.90;;;;;;5093227;28;20503;-72
2023/10/20 02:12:25;;;;;;;1.17;1.08;;;8.10;99.90;;;;;;5093658;28;20068;-70
2023/10/20 02:14:51;;;;;;;1.15;1.05;;;8.20;99.90;;;;;;5093656;28;20467;-71
2023/10/20 02:17:16;;;;;;;2.58;1.15;;;8.50;99.90;;;;;;5093731;28;20047;-71
2023/10/20 02:19:42;;;;;;;2.17;2.00;;;8.10;99.90;;;;;;5093484;28;20105;-71
2023/10/20 02:22:07;;;;;;;2.95;1.08;;;8.20;99.90;;;;;;5093396;28;20032;-72
2023/10/20 02:24:33;;;;;;;1.00;1.00;;;8.20;99.90;;;;;;5093353;28;20455;-71
2023/10/20 02:26:59;;;;;;;0.90;0.90;;;8.20;99.90;;;;;;5093353;28;20166;-72
2023/10/20 02:29:24;;;;;;;1.10;1.00;;;8.30;99.90;;;;;;5093368;28;20040;-70
2023/10/20 02:31:50;;;;;;;2.25;1.23;;;8.80;99.90;;;;;;5093313;28;20058;-71
2023/10/20 02:34:16;;;;;;;0.85;0.85;;;8.20;99.90;;;;;;5093372;28;20360;-72
2023/10/20 02:36:42;;;;;;;0.90;0.90;;;8.20;99.90;;;;;;5093306;28;20048;-69
2023/10/20 02:39:08;;;;;;;0.80;0.80;;;8.10;99.90;;;;;;5093256;28;20032;-71
2023/10/20 02:41:33;;;;;;;0.88;0.88;;;9.30;99.90;;;;;;5093259;28;20326;-70
2023/10/20 02:43:59;;;;;;;1.70;1.55;;;8.30;99.90;;;;;;5093365;28;20040;-69
2023/10/20 02:46:24;;;;;;;0.90;0.90;;;8.10;99.90;;;;;;5093158;28;20375;-71
2023/10/20 02:48:50;;;;;;;1.15;1.05;;;8.10;99.90;;;;;;5093410;28;20032;-71
2023/10/20 02:51:17;;;;;;;0.90;0.90;;;8.10;99.90;;;;;;5093184;28;20509;-70
2023/10/20 02:53:43;;;;;;;1.00;1.00;;;8.10;99.90;;;;;;5093001;28;20044;-74
2023/10/20 02:56:13;;;;;;;1.00;1.00;;;8.10;99.90;;;;;;5093068;28;20032;-72
2023/10/20 02:58:40;;;;;;;0.90;0.90;;;8.20;99.90;;;;;;5093780;28;20352;-73
2023/10/20 03:01:07;;;;;;;0.90;0.90;;;8.10;99.90;;;;;;5096788;28;20032;-73
2023/10/20 03:03:33;;;;;;;1.38;1.27;;;8.20;99.90;;;;;;5096739;28;20040;-69
2023/10/20 03:06:01;;;;;;;1.00;1.00;;;8.10;99.90;;;;;;5096780;28;20127;-69
2023/10/20 03:08:28;;;;;;;0.90;0.90;;;8.10;99.90;;;;;;5096641;28;20052;-69
2023/10/20 03:10:54;;;;;;;1.52;1.42;;;8.10;99.90;;;;;;5096645;28;20044;-72
2023/10/20 03:13:20;;;;;;;1.27;1.17;;;8.10;99.90;;;;;;5096409;28;20040;-69
2023/10/20 03:15:45;;;;;;;1.55;1.45;;;8.10;99.90;;;;;;5096520;28;20360;-71
2023/10/20 03:18:14;;;;;;;0.98;0.98;;;8.10;99.90;;;;;;5096600;28;20036;-72
2023/10/20 03:20:40;;;;;;;1.27;1.17;;;8.40;99.90;;;;;;5096507;28;20380;-72
2023/10/20 03:23:05;;;;;;;3.63;2.67;;;7.70;99.90;;;;;;5096368;28;20043;-70
2023/10/20 03:25:33;;;;;;;1.33;1.23;;;8.10;99.90;;;;;;5096405;28;20036;-69
2023/10/20 03:27:58;;;;;;;0.90;0.90;;;8.10;99.90;;;;;;5096517;28;20044;-69
2023/10/20 03:30:24;;;;;;;0.90;0.90;;;8.10;99.90;;;;;;5096263;28;20098;-72
2023/10/20 03:32:50;;;;;;;1.55;1.45;;;8.10;99.90;;;;;;5096144;28;20036;-71
2023/10/20 03:35:16;;;;;;;1.20;1.10;;;8.10;99.90;;;;;;5096152;28;20371;-72
2023/10/20 03:37:41;;;;;;;1.10;1.00;;;8.10;99.90;;;;;;5096131;28;20036;-70
2023/10/20 03:40:16;;;;;;;0.80;0.80;;;8.10;99.90;;;;;;5096065;28;20490;-71
2023/10/20 03:42:43;;;;;;;2.25;1.65;;;8.10;99.90;;;;;;5096287;28;20533;-69
2023/10/20 03:45:10;;;;;;;0.88;0.88;;;8.10;99.90;;;;;;5095820;28;20047;-71
2023/10/20 03:47:39;;;;;;;;;;;8.90;99.90;;;;;;5096029;28;20040;-71
2023/10/20 03:50:15;;;;;;;0.88;0.88;;;8.10;99.90;;;;;;5095875;28;19920;-72
2023/10/20 03:52:42;;;;;;;0.82;0.82;;;8.10;99.90;;;;;;5096514;28;20075;-74
2023/10/20 03:55:08;;;;;;;1.40;1.30;;;8.10;99.90;;;;;;5096173;28;20040;-71
2023/10/20 03:57:34;;;;;;;1.42;1.33;;;8.10;99.90;;;;;;5095789;28;20395;-71
2023/10/20 04:00:15;;;;;;;1.00;1.00;;;8.10;99.90;;;;;;5095895;28;20119;-74
2023/10/20 04:02:41;;;;;;;1.40;1.27;;;8.10;99.90;;;;;;5095693;28;20055;-71
2023/10/20 04:05:07;;;;;;;0.80;0.80;;;8.00;99.90;;;;;;5094565;28;20089;-72
2023/10/20 04:07:33;;;;;;;0.80;0.80;;;8.10;99.90;;;;;;5095714;28;20071;-72
2023/10/20 04:09:59;;;;;;;1.33;1.23;;;8.10;99.90;;;;;;5094844;28;20083;-72
2023/10/20 04:12:27;;;;;;;0.80;0.80;;;8.70;99.90;;;;;;5094905;28;20040;-71
2023/10/20 04:14:55;;;;;;;0.90;0.90;;;8.10;99.90;;;;;;5095317;28;20498;-70
2023/10/20 04:17:21;;;;;;;1.52;1.42;;;8.10;99.90;;;;;;5095253;28;20047;-71
2023/10/20 04:19:47;;;;;;;1.00;1.00;;;8.10;99.90;;;;;;5095236;28;20032;-71
2023/10/20 04:22:13;;;;;;;1.60;1.10;;;8.90;99.90;;;;;;5095136;28;20032;-73
2023/10/20 04:24:41;;;;;;;0.80;0.80;;;8.10;99.90;;;;;;5095131;28;20032;-75
2023/10/20 04:27:18;;;;;;;1.63;1.52;;;8.10;99.90;;;;;;5095143;28;20046;-71
2023/10/20 04:43:42;;;;;;;0.80;0.80;;;7.90;99.90;;;;;;5095085;28;20044;-69
2023/10/20 04:54:40;;;;;;;0.90;0.90;;;7.90;99.90;;;;;;5094698;28;20052;-71
2023/10/20 04:59:44;;;;;;;;;;;8.40;99.90;;;;;;5095483;28;20047;-72
2023/10/20 05:02:23;;;;;;;0.90;0.90;;;7.90;99.90;;;;;;5094579;28;20301;-71
2023/10/20 05:04:51;;;;;;;2.05;1.52;;;7.90;99.90;;;;;;5094693;28;20039;-71
2023/10/20 05:07:18;;;;;;;0.80;0.80;;;7.90;99.90;;;;;;5094387;28;20069;-70
2023/10/20 05:09:49;;;;;;;0.90;0.90;;;7.90;99.90;;;;;;5094274;28;20491;-71
2023/10/20 05:12:15;;;;;;;0.90;0.90;;;7.90;99.90;;;;;;5094731;28;20151;-70
2023/10/20 05:14:41;;;;;;;0.80;0.80;;;8.80;99.90;;;;;;5094067;28;20452;-71
2023/10/20 05:17:10;;;;;;;1.10;1.00;;;8.40;99.90;;;;;;5094345;28;20044;-72
2023/10/20 05:19:36;;;;;;;0.80;0.80;;;7.90;99.90;;;;;;5094221;28;20478;-70
2023/10/20 05:22:01;;;;;;;1.00;1.00;;;7.90;99.90;;;;;;5093933;28;20044;-72
2023/10/20 05:24:27;;;;;;;1.00;1.00;;;8.00;99.90;;;;;;5093742;28;20039;-73
2023/10/20 05:26:53;;;;;;;4.00;1.00;;;7.90;99.90;;;;;;5094117;28;20047;-72
2023/10/20 05:29:19;;;;;;;1.17;1.08;;;7.90;99.90;;;;;;5094143;28;20093;-69
2023/10/20 05:31:44;;;;;;;0.80;0.80;;;8.50;99.90;;;;;;5093956;28;20032;-69
2023/10/20 05:34:11;;;;;;;0.80;0.80;;;7.90;99.90;;;;;;5093944;28;20043;-72
2023/10/20 05:36:36;;;;;;;1.48;0.90;;;7.90;99.90;;;;;;5092208;28;20083;-71
2023/10/20 05:39:02;;;;;;;1.00;1.00;;;7.90;99.90;;;;;;5093043;28;20068;-70
2023/10/20 05:41:29;;;;;;;0.80;0.80;;;7.90;99.90;;;;;;5093567;28;20375;-71
2023/10/20 05:43:55;;;;;;;;;;;7.80;99.90;;;;;;5094133;28;20127;-71
2023/10/20 05:46:21;;;;;;;0.90;0.90;;;7.90;99.90;;;;;;5093571;28;19951;-70
2023/10/20 05:48:47;;;;;;;0.80;0.80;;;7.90;99.90;;;;;;5093724;28;20055;-71
2023/10/20 05:51:13;;;;;;;1.10;1.00;;;7.80;99.90;;;;;;5093419;28;20044;-71
2023/10/20 05:53:39;;;;;;;1.23;1.03;;;8.60;99.90;;;;;;5093432;28;20432;-69
2023/10/20 05:56:05;;;;;;;0.80;0.80;;;7.80;99.90;;;;;;5093376;28;20051;-72
2023/10/20 05:58:32;;;;;;;0.90;0.90;;;7.80;99.90;;;;;;5093659;28;20379;-69
2023/10/20 06:01:05;;;;;;;0.90;0.90;;;7.80;99.90;;;;;;5093423;28;20107;-71
2023/10/20 06:03:31;;;;;;;0.88;0.88;;;7.80;99.90;;;;;;5093519;28;20372;-71
2023/10/20 06:06:00;;;;;;;0.80;0.80;;;8.50;99.90;;;;;;5092981;28;20043;-72
2023/10/20 06:08:28;;;;;;;1.35;1.27;;;7.80;99.90;;;;;;5093158;28;20130;-71
2023/10/20 06:11:02;;;;;;;0.90;0.90;;;7.80;99.90;;;;;;5093504;28;20051;-71
2023/10/20 06:13:29;;;;;;;0.80;0.80;;;7.70;99.90;;;;;;5093373;28;20040;-71
2023/10/20 06:15:55;;;;;;;0.85;0.85;;;7.80;99.90;;;;;;5093252;28;20044;-71
2023/10/20 06:18:21;;;;;;;1.05;1.05;;;7.80;99.90;;;;;;5093108;28;20040;-72
2023/10/20 06:20:46;;;;;;;0.90;0.90;;;7.80;99.90;;;;;;5092502;28;20487;-70
2023/10/20 06:23:12;;;;;;;0.80;0.80;;;7.80;99.90;;;;;;5093237;28;20036;-71
2023/10/20 06:25:38;;;;;;;0.90;0.90;;;7.90;99.90;;;;;;5093179;28;20054;-71
2023/10/20 06:28:04;;;;;;;1.00;1.00;;;8.40;99.90;;;;;;5092007;28;20067;-70
2023/10/20 06:30:30;;;;;;;0.90;0.90;;;7.80;99.90;;;;;;5091998;28;20044;-71
2023/10/20 06:35:44;;;;;;;0.90;0.90;;;7.80;99.90;;;;;;5096792;28;20044;-69
2023/10/20 06:40:35;;;;;;;1.38;1.27;;;7.80;99.90;;;;;;5096890;28;20052;-70
2023/10/20 06:43:01;;;;;;;1.00;1.00;;;7.70;99.90;;;;;;5097065;28;20075;-71
2023/10/20 06:45:27;;;;;;;0.90;0.90;;;8.40;99.90;;;;;;5096721;28;20460;-70
2023/10/20 06:47:53;;;;;;;1.10;1.00;;;7.80;99.90;;;;;;5096157;28;20040;-72
2023/10/20 06:50:18;;;;;;;1.00;1.00;;;7.70;99.90;;;;;;5096520;28;20039;-72
2023/10/20 06:52:44;;;;;;;0.90;0.90;;;7.70;99.90;;;;;;5095736;28;20320;-70
2023/10/20 06:55:09;;;;;;;4.68;3.67;;;7.70;99.90;;;;;;5095686;28;20132;-72
2023/10/20 06:57:35;;;;;;;1.20;1.10;;;7.80;99.90;;;;;;5095549;28;20525;-72
2023/10/20 07:00:02;;;;;;;0.90;0.90;;;7.80;99.90;;;;;;5096686;28;20071;-68
2023/10/20 07:02:28;;;;;;;0.80;0.80;;;7.80;99.90;;;;;;5096289;28;20044;-72
2023/10/20 07:04:55;;;;;;;0.88;0.88;;;7.80;99.90;;;;;;5096119;28;20043;-71
2023/10/20 07:07:21;;;;;;;1.40;1.30;;;7.80;99.90;;;;;;5096673;28;20115;-70
2023/10/20 07:09:46;;;;;;;0.80;0.80;;;7.80;99.90;;;;;;5096406;28;20093;-68
2023/10/20 07:12:14;;;;;;;0.90;0.90;;;8.70;99.90;;;;;;5096180;28;20102;-68
2023/10/20 07:14:42;;;;;;;0.90;0.90;;;7.80;99.90;;;;;;5096410;28;20115;-69
2023/10/20 07:17:08;;;;;;;1.58;1.48;;;7.80;99.90;;;;;;5095949;28;20538;-73
2023/10/20 07:19:33;;;;;;;1.38;1.27;;;8.00;99.90;;;;;;5096205;28;20129;-72
2023/10/20 07:22:02;;;;;;;0.90;0.90;;;7.80;99.90;;;;;;5095867;28;20054;-70
2023/10/20 07:24:29;;;;;;;0.80;0.80;;;7.80;99.90;;;;;;5096341;28;20044;-70
2023/10/20 07:26:55;;;;;;;0.80;0.80;;;7.80;99.90;;;;;;5096295;28;20054;-71
2023/10/20 07:29:20;;;;;;;0.80;0.80;;;8.10;99.90;;;;;;5096272;28;20119;-71
2023/10/20 07:31:47;;;;;;;0.80;0.80;;;7.80;99.90;;;;;;5095773;28;20050;-70
2023/10/20 07:34:13;;;;;;;0.90;0.90;;;7.80;99.90;;;;;;5096290;28;20416;-71
2023/10/20 07:36:40;;;;;;;0.90;0.90;;;7.80;99.90;;;;;;5096478;28;20043;-72
2023/10/20 07:39:08;;;;;;;;;;;7.80;99.90;;;;;;5096639;28;20067;-74
2023/10/20 07:41:35;;;;;;;0.80;0.80;;;7.70;99.90;;;;;;5095996;28;19927;-70
2023/10/20 07:44:01;;;;;;;0.80;0.80;;;7.80;99.90;;;;;;5096127;28;20040;-73
2023/10/20 07:46:27;;;;;;;0.77;0.77;;;7.80;99.90;;;;;;5095824;28;20048;-72
2023/10/20 07:48:53;;;;;;;1.00;0.90;;;7.80;99.90;;;;;;5095939;28;20036;-72
2023/10/20 07:51:19;;;;;;;1.00;1.00;;;7.80;99.90;;;;;;5095804;28;20032;-72
2023/10/20 07:53:44;;;;;;;0.80;0.80;;;8.30;99.90;;;;;;5095754;28;20055;-73
2023/10/20 07:56:10;;;;;;;0.80;0.80;;;7.80;99.90;;;;;;5095778;28;20375;-71
2023/10/20 07:58:38;;;;;;;1.10;1.00;;;7.80;99.90;;;;;;5095911;28;20036;-73
2023/10/20 08:01:07;;;;;;;0.80;0.80;;;7.80;99.90;;;;;;5095786;28;20039;-71
2023/10/20 08:03:33;;;;;;;0.77;0.77;;;7.80;99.90;;;;;;5095583;28;20115;-73
2023/10/20 08:06:03;;;;;;;0.80;0.80;;;7.80;99.90;;;;;;5095603;28;20036;-72
2023/10/20 08:08:32;;;;;;;0.90;0.90;;;7.80;99.90;;;;;;5095288;28;20116;-71
2023/10/20 08:10:59;;;;;;;0.80;0.80;;;7.80;99.90;;;;;;5095483;28;20482;-73
2023/10/20 08:13:24;;;;;;;0.85;0.85;;;7.80;99.90;;;;;;5095149;28;20036;-73
2023/10/20 08:15:50;;;;;;;1.35;1.25;;;7.80;99.90;;;;;;5095360;28;20055;-70
2023/10/20 08:18:16;;;;;;;0.90;0.90;;;8.50;99.90;;;;;;5095091;28;20542;-70
2023/10/20 08:20:42;;;;;;;0.80;0.80;;;8.60;99.90;;;;;;5095765;28;20042;-72
2023/10/20 08:23:08;;;;;;;3.05;2.78;;;7.80;99.90;;;;;;5095256;28;20383;-72
2023/10/20 08:25:37;;;;;;;0.80;0.80;;;7.80;99.90;;;;;;5095328;28;20479;-71
2023/10/20 08:28:03;;;;;;;0.80;0.80;;;7.80;99.90;;;;;;5095246;28;20044;-72
2023/10/20 08:30:29;;;;;;;0.80;0.80;;;7.80;99.90;;;;;;5094147;28;20044;-72
2023/10/20 08:32:54;;;;;;;1.55;1.45;;;7.80;99.90;;;;;;5095051;28;20122;-72
2023/10/20 08:35:21;;;;;;;0.70;0.70;;;7.80;99.90;;;;;;5095122;28;20370;-70
2023/10/20 08:37:46;;;;;;;0.70;0.70;;;7.80;99.90;;;;;;5095324;28;20054;-70
2023/10/20 08:40:12;;;;;;;0.90;0.90;;;8.40;99.90;;;;;;5095055;28;20115;-71
2023/10/20 08:42:39;;;;;;;0.90;0.90;;;7.70;99.90;;;;;;5094669;28;20043;-72
2023/10/20 08:45:11;;;;;;;0.80;0.80;;;7.80;99.90;;;;;;5094824;28;20092;-73
2023/10/20 08:47:38;;;;;;;0.80;0.80;;;7.70;99.90;;;;;;5095415;28;20040;-70
2023/10/20 08:50:06;;;;;;;0.80;0.80;;;8.50;99.90;;;;;;5094870;28;20380;-69
2023/10/20 08:52:32;;;;;;;0.80;0.80;;;7.70;99.90;;;;;;5094553;28;20040;-69
2023/10/20 08:54:58;;;;;;;0.90;0.90;;;7.70;99.90;;;;;;5094549;28;20046;-69
2023/10/20 08:57:24;;;;;;;0.80;0.80;;;8.50;99.90;;;;;;5094089;28;20199;-69
2023/10/20 08:59:52;;;;;;;0.80;0.80;;;7.70;99.90;;;;;;5094712;28;20044;-76
2023/10/20 09:02:18;;;;;;;0.90;0.90;;;7.70;99.90;;;;;;5094559;28;20032;-68
2023/10/20 09:04:50;;;;;;;0.80;0.80;;;7.70;99.90;;;;;;5094379;28;20039;-69
2023/10/20 09:07:16;;;;;;;0.80;0.80;;;7.60;99.90;;;;;;5094770;28;20441;-71
2023/10/20 09:09:42;;;;;;;0.90;0.90;;;7.70;99.90;;;;;;5094768;28;20118;-68
2023/10/20 09:12:08;;;;;;;0.80;0.80;;;8.40;99.90;;;;;;5094241;28;20494;-78
2023/10/20 09:14:38;;;;;;;0.80;0.80;;;7.70;99.90;;;;;;5094374;28;20055;-70
2023/10/20 09:17:04;;;;;;;0.80;0.80;;;7.60;99.90;;;;;;5094371;28;20415;-69
2023/10/20 09:19:29;;;;;;;0.80;0.80;;;7.70;99.90;;;;;;5094317;28;20039;-73
2023/10/20 09:21:57;;;;;;;0.80;0.80;;;7.70;99.90;;;;;;5094154;28;20040;-69
2023/10/20 09:24:29;;;;;;;0.80;0.80;;;7.60;99.90;;;;;;5094142;28;20063;-72
2023/10/20 09:26:56;;;;;;;0.80;0.80;;;7.60;99.90;;;;;;5094125;28;20044;-70
2023/10/20 09:29:22;;;;;;;0.80;0.80;;;7.60;99.90;;;;;;5094195;28;20082;-73
2023/10/20 09:31:49;;;;;;;0.80;0.80;;;8.20;99.90;;;;;;5094346;28;20435;-72
2023/10/20 09:34:15;;;;;;;0.80;0.80;;;7.60;99.90;;;;;;5094054;28;20035;-73
2023/10/20 09:36:46;;;;;;;0.80;0.80;;;8.30;99.90;;;;;;5094126;28;20047;-70
2023/10/20 09:39:16;;;;;;;0.80;0.80;;;7.60;99.90;;;;;;5094036;28;20040;-68
2023/10/20 09:41:50;;;;;;;0.80;0.80;;;7.60;99.90;;;;;;5093849;28;20052;-69
2023/10/20 09:44:32;;;;;;;0.70;0.70;;;7.60;99.90;;;;;;5094171;28;20043;-69
2023/10/20 09:47:11;;;;;;;0.80;0.80;;;7.60;99.90;;;;;;5093872;28;20043;-67
2023/10/20 09:49:38;;;;;;;0.85;0.85;;;7.60;99.90;;;;;;5093817;28;20071;-72
2023/10/20 09:52:05;;;;;;;0.80;0.80;;;7.60;99.90;;;;;;5093622;28;20122;-70
2023/10/20 09:54:32;;;;;;;0.80;0.80;;;7.60;99.90;;;;;;5093235;28;20387;-69
2023/10/20 09:56:58;;;;;;;0.80;0.80;;;7.60;99.90;;;;;;5094086;28;20036;-71
2023/10/20 09:59:27;;;;;;;0.80;0.80;;;8.00;99.90;;;;;;5093603;28;20503;-71
2023/10/20 10:01:53;;;;;;;0.80;0.80;;;7.50;99.90;;;;;;5093713;28;20310;-68
2023/10/20 10:04:33;;;;;;;0.90;0.90;;;7.50;99.90;;;;;;5093610;28;20044;-70
2023/10/20 10:07:06;;;;;;;0.80;0.80;;;7.60;99.90;;;;;;5094147;28;20074;-70
2023/10/20 10:09:40;;;;;;;0.77;0.77;;;7.60;99.90;;;;;;5095897;28;20094;-71
2023/10/20 10:12:16;;;;;;;0.80;0.80;;;7.60;99.90;;;;;;5097551;28;20506;-71
2023/10/20 10:14:42;;;;;;;0.80;0.80;;;7.60;99.90;;;;;;5097938;28;20431;-70
2023/10/20 10:17:11;;;;;;;0.80;0.80;;;7.50;99.90;;;;;;5097425;28;20036;-70
2023/10/20 10:19:51;;;;;;;0.80;0.80;;;7.50;99.90;;;;;;5098052;28;20047;-69
2023/10/20 10:22:22;;;;;;;0.70;0.70;;;7.50;99.90;;;;;;5097513;28;20036;-76
2023/10/20 10:24:51;;;;;;;0.80;0.80;;;8.40;99.90;;;;;;5097845;28;20397;-68
2023/10/20 10:27:17;;;;;;;0.80;0.80;;;8.40;99.90;;;;;;5097648;28;20058;-69
2023/10/20 10:30:06;;;;;;;0.80;0.80;;;7.50;99.90;;;;;;5097445;28;20070;-69
2023/10/20 10:32:32;;;;;;;0.80;0.80;;;7.50;99.90;;;;;;5097870;28;20423;-73
2023/10/20 10:34:58;;;;;;;0.80;0.80;;;7.50;99.90;;;;;;5097493;28;20032;-73
2023/10/20 10:37:35;;;;;;;0.80;0.80;;;7.50;99.90;;;;;;5097274;28;20097;-71
2023/10/20 10:40:12;;;;;;;0.80;0.80;;;7.50;99.90;;;;;;5097332;28;20161;-75
2023/10/20 10:42:45;;;;;;;0.80;0.80;;;7.50;99.90;;;;;;5097325;28;20042;-71
2023/10/20 10:45:36;;;;;;;0.70;0.70;;;7.50;99.90;;;;;;5097350;28;20061;-69
2023/10/20 10:48:11;;;;;;;0.73;0.73;;;7.50;99.90;;;;;;5097278;28;20036;-71
2023/10/20 10:50:42;;;;;;;0.80;0.80;;;7.50;99.90;;;;;;5097265;28;20040;-72
2023/10/20 10:53:10;;;;;;;0.80;0.80;;;7.50;99.90;;;;;;5097438;28;20406;-72
2023/10/20 10:55:36;;;;;;;0.70;0.70;;;7.50;99.90;;;;;;5097127;28;20439;-71
2023/10/20 10:58:06;;;;;;;0.80;0.80;;;8.30;99.90;;;;;;5097136;28;20032;-71
2023/10/20 11:00:32;;;;;;;0.80;0.80;;;7.50;99.90;;;;;;5095709;28;20462;-70
2023/10/20 11:02:58;;;;;;;0.80;0.80;;;7.50;99.90;;;;;;5096949;28;20089;-72
2023/10/20 11:05:25;;;;;;;0.80;0.80;;;8.30;99.90;;;;;;5096969;28;20040;-73
2023/10/20 11:07:59;;;;;;;0.80;0.80;;;7.40;99.90;;;;;;5096413;28;20490;-70
2023/10/20 11:10:28;;;;;;;0.80;0.80;;;7.40;99.90;;;;;;5097225;28;20095;-71
2023/10/20 11:12:58;;;;;;;0.80;0.80;;;7.40;99.90;;;;;;5096491;28;20479;-72
2023/10/20 11:15:28;;;;;;;0.90;0.90;;;7.40;99.90;;;;;;5096668;28;20063;-69
2023/10/20 11:18:01;;;;;;;0.80;0.80;;;7.40;99.90;;;;;;5096666;28;20060;-70
2023/10/20 11:20:29;;;;;;;0.77;0.77;;;7.40;99.90;;;;;;5096549;28;20093;-71
2023/10/20 11:22:55;;;;;;;0.80;0.80;;;7.40;99.90;;;;;;5096542;28;20471;-71
2023/10/20 11:25:22;;;;;;;0.80;0.80;;;7.40;99.90;;;;;;5096333;28;20117;-72
2023/10/20 11:27:54;;;;;;;0.80;0.80;;;7.60;99.90;;;;;;5096427;28;20059;-70
2023/10/20 11:30:27;;;;;;;0.80;0.80;;;7.40;99.90;;;;;;5096403;28;20376;-68
2023/10/20 11:32:54;;;;;;;0.80;0.80;;;7.40;99.90;;;;;;5096106;28;20042;-68
2023/10/20 11:35:26;;;;;;;0.80;0.80;;;7.40;99.90;;;;;;5096680;28;20375;-70
2023/10/20 11:37:58;;;;;;;0.73;0.73;;;8.00;99.90;;;;;;5096368;28;20036;-69
2023/10/20 11:40:28;;;;;;;0.73;0.73;;;7.40;99.90;;;;;;5095060;28;20101;-73
2023/10/20 11:42:55;;;;;;;0.80;0.80;;;7.40;99.90;;;;;;5095499;28;20075;-73
2023/10/20 11:45:21;;;;;;;0.80;0.80;;;7.40;99.90;;;;;;5096605;28;20047;-72
2023/10/20 11:47:46;;;;;;;0.90;0.90;;;7.50;99.90;;;;;;5096073;28;20044;-78
2023/10/20 11:50:15;;;;;;;0.80;0.80;;;7.30;99.90;;;;;;5096286;28;20059;-70
2023/10/20 11:52:41;;;;;;;0.70;0.70;;;7.30;99.90;;;;;;5095241;28;20043;-70
2023/10/20 11:55:10;;;;;;;0.77;0.77;;;7.30;99.90;;;;;;5095880;28;20456;-72
2023/10/20 11:57:39;;;;;;;0.80;0.80;;;7.30;99.90;;;;;;5095894;28;20920;-72
2023/10/20 12:00:09;;;;;;;0.80;0.80;;;7.30;99.90;;;;;;5095864;28;20444;-72
2023/10/20 12:02:36;;;;;;;0.80;0.80;;;7.30;99.90;;;;;;5095832;28;20043;-72
2023/10/20 12:05:01;;;;;;;0.98;0.98;;;7.30;99.90;;;;;;5095481;28;20353;-73
2023/10/20 12:07:27;;;;;;;0.80;0.80;;;7.30;99.90;;;;;;5095692;28;20051;-72
2023/10/20 12:09:53;;;;;;;0.80;0.80;;;7.30;99.90;;;;;;5095738;28;20043;-69
2023/10/20 12:12:19;;;;;;;0.90;0.90;;;7.30;99.90;;;;;;5095937;28;20044;-72
2023/10/20 12:14:46;;;;;;;0.80;0.80;;;7.40;99.90;;;;;;5095509;28;20044;-69
2023/10/20 12:17:11;;;;;;;0.80;0.80;;;7.30;99.90;;;;;;5095551;28;20036;-72
2023/10/20 12:19:37;;;;;;;0.80;0.80;;;7.30;99.90;;;;;;5095699;28;20113;-68
2023/10/20 12:22:04;;;;;;;;;;;7.30;99.90;;;;;;5095813;28;20054;-69
2023/10/20 12:24:30;;;;;;;0.80;0.80;;;7.30;99.90;;;;;;5094093;28;19916;-73
2023/10/20 12:26:56;;;;;;;0.90;0.90;;;7.30;99.90;;;;;;5095105;28;20468;-70
2023/10/20 12:29:22;;;;;;;0.80;0.80;;;7.40;99.90;;;;;;5095621;28;20040;-73
2023/10/20 12:31:49;;;;;;;0.80;0.80;;;7.40;99.90;;;;;;5094274;28;20036;-72
2023/10/20 12:34:14;;;;;;;0.80;0.80;;;7.40;99.90;;;;;;5094998;28;20044;-72
2023/10/20 12:36:43;;;;;;;0.80;0.80;;;7.40;99.90;;;;;;5095259;28;20080;-70
2023/10/20 12:39:09;;;;;;;0.80;0.80;;;7.70;99.90;;;;;;5095295;28;20132;-72
2023/10/20 12:41:35;;;;;;;0.80;0.80;;;7.40;99.90;;;;;;5095107;28;20135;-71
2023/10/20 12:44:02;;;;;;;0.90;0.90;;;7.40;99.90;;;;;;5094833;28;20487;-72
2023/10/20 12:46:28;;;;;;;0.80;0.80;;;8.40;99.90;;;;;;5094834;28;20051;-68
2023/10/20 12:48:54;;;;;;;0.85;0.85;;;7.40;99.90;;;;;;5093927;28;20135;-69
2023/10/20 12:51:19;;;;;;;0.80;0.80;;;7.40;99.90;;;;;;5094911;28;20118;-68
2023/10/20 12:53:45;;;;;;;0.80;0.80;;;7.30;99.90;;;;;;5094733;28;20375;-70
2023/10/20 12:56:11;;;;;;;0.80;0.80;;;7.30;99.90;;;;;;5094769;28;20043;-71
2023/10/20 12:58:37;;;;;;;0.70;0.70;;;7.30;99.90;;;;;;5095051;28;20036;-69
2023/10/20 13:01:03;;;;;;;0.80;0.80;;;7.30;99.90;;;;;;5094576;28;20043;-72
2023/10/20 13:03:29;;;;;;;0.80;0.80;;;7.30;99.90;;;;;;5094721;28;20182;-70
2023/10/20 13:05:55;;;;;;;0.80;0.80;;;7.30;99.90;;;;;;5094607;28;20036;-73
2023/10/20 13:08:21;;;;;;;0.80;0.80;;;7.20;99.90;;;;;;5094409;28;20066;-73
2023/10/20 13:10:47;;;;;;;0.83;0.83;;;7.20;99.90;;;;;;5093061;28;20047;-69
2023/10/20 13:13:14;;;;;;;0.80;0.80;;;7.20;99.90;;;;;;5094465;28;20375;-71
2023/10/20 13:15:40;;;;;;;0.80;0.80;;;7.20;99.90;;;;;;5094458;28;20039;-71
2023/10/20 13:18:06;;;;;;;0.82;0.82;;;7.20;99.90;;;;;;5094599;28;20077;-70
2023/10/20 13:20:31;;;;;;;0.82;0.82;;;7.20;99.90;;;;;;5094390;28;20465;-73
2023/10/20 13:22:57;;;;;;;0.85;0.85;;;7.20;99.90;;;;;;5094285;28;20038;-73
2023/10/20 13:25:22;;;;;;;0.80;0.80;;;7.40;99.90;;;;;;5093998;28;20040;-68
2023/10/20 13:27:49;;;;;;;0.90;0.90;;;8.00;99.90;;;;;;5094231;28;20484;-70